Time;durP1;ratioP1;P1;durP2;ratioP2;P2;SDS_P1;SDS_P2;PMS_P1;PMS_P2;Temp;Humidity;BMP_temperature;BMP_pressure;BME280_temperature;BME280_humidity;BME280_pressure;Samples;Min_cycle;Max_cycle;Signal;HPM_P1;HPM_P2
2021/07/06 00:02:20;;;;;;;22.70;15.75;;;16.70;99.90;;;;;;6186790;23;20013;-79
2021/07/06 00:04:47;;;;;;;21.10;15.82;;;16.70;99.90;;;;;;6186737;23;20016;-79
2021/07/06 00:07:17;;;;;;;19.55;15.20;;;16.70;99.90;;;;;;6160244;23;20335;-79
2021/07/06 00:09:43;;;;;;;17.33;15.40;;;17.10;99.90;;;;;;6184377;23;20013;-79
2021/07/06 00:12:10;;;;;;;18.00;15.30;;;16.70;99.90;;;;;;6186484;23;20024;-79
2021/07/06 00:14:38;;;;;;;21.42;15.75;;;16.70;99.90;;;;;;6186080;23;20019;-79
2021/07/06 00:17:04;;;;;;;21.40;15.32;;;16.70;99.90;;;;;;6185162;23;20048;-78
2021/07/06 00:19:30;;;;;;;22.90;14.95;;;16.70;99.90;;;;;;6184347;23;20013;-79
2021/07/06 00:21:58;;;;;;;18.83;15.85;;;16.70;99.90;;;;;;6184462;23;20339;-79
2021/07/06 00:24:24;;;;;;;16.27;14.50;;;16.80;99.90;;;;;;6185509;23;20013;-79
2021/07/06 00:26:50;;;;;;;20.92;16.23;;;16.70;99.90;;;;;;6160999;23;20044;-79
2021/07/06 00:29:16;;;;;;;21.75;18.30;;;16.70;99.90;;;;;;6183417;23;20063;-79
2021/07/06 00:31:42;;;;;;;24.27;19.45;;;16.70;99.90;;;;;;6187328;23;20009;-79
2021/07/06 00:34:08;;;;;;;21.40;18.65;;;16.50;99.90;;;;;;6159474;23;20428;-79
2021/07/06 00:36:34;;;;;;;20.83;18.55;;;16.70;99.90;;;;;;6161871;23;20466;-79
2021/07/06 00:39:00;;;;;;;30.17;20.85;;;16.70;99.90;;;;;;6184287;23;20009;-79
2021/07/06 00:41:29;;;;;;;26.23;20.23;;;16.90;99.90;;;;;;6184357;23;20087;-79
2021/07/06 00:43:55;;;;;;;23.08;20.67;;;16.50;99.90;;;;;;6187088;23;20016;-79
2021/07/06 00:46:23;;;;;;;23.80;18.83;;;16.70;99.90;;;;;;6184043;23;20013;-79
2021/07/06 00:48:50;;;;;;;28.80;21.20;;;16.70;99.90;;;;;;6161367;23;20017;-79
2021/07/06 00:51:16;;;;;;;26.52;19.70;;;16.80;99.90;;;;;;6187170;23;20036;-79
2021/07/06 00:53:42;;;;;;;24.25;18.45;;;16.70;99.90;;;;;;6161525;23;20009;-78
2021/07/06 00:56:07;;;;;;;25.85;19.38;;;16.70;99.90;;;;;;6185491;23;20017;-78
2021/07/06 00:58:35;;;;;;;19.80;17.67;;;16.80;99.90;;;;;;6183752;23;20507;-78
2021/07/06 01:01:01;;;;;;;25.90;19.25;;;16.80;99.90;;;;;;6183797;23;20331;-78
2021/07/06 01:03:27;;;;;;;24.25;18.70;;;16.80;99.90;;;;;;6185557;23;20087;-78
2021/07/06 01:05:53;;;;;;;23.15;19.50;;;16.80;99.90;;;;;;6184866;23;20087;-78
2021/07/06 01:08:19;;;;;;;22.08;19.13;;;16.70;99.90;;;;;;6187791;23;20013;-78
2021/07/06 01:10:45;;;;;;;28.70;22.48;;;16.80;99.90;;;;;;6183402;23;20203;-78
2021/07/06 01:13:12;;;;;;;30.45;23.27;;;16.80;99.90;;;;;;6185125;23;20131;-78
2021/07/06 01:15:38;;;;;;;31.77;25.20;;;16.70;99.90;;;;;;6185510;23;20017;-78
2021/07/06 01:18:10;;;;;;;32.65;23.35;;;16.70;99.90;;;;;;6186645;23;20013;-78
2021/07/06 01:20:39;;;;;;;30.10;24.13;;;16.70;99.90;;;;;;6185756;23;20037;-78
2021/07/06 01:23:06;;;;;;;32.72;23.38;;;16.70;99.90;;;;;;6184832;23;20013;-79
2021/07/06 01:25:34;;;;;;;27.52;22.48;;;16.70;99.90;;;;;;6186473;23;20020;-79
2021/07/06 01:28:01;;;;;;;32.20;25.92;;;16.70;99.90;;;;;;6158786;23;20013;-78
2021/07/06 01:30:26;;;;;;;24.63;21.70;;;16.70;99.90;;;;;;6187186;23;20062;-78
2021/07/06 01:32:52;;;;;;;23.45;19.52;;;16.70;99.90;;;;;;6186866;23;20369;-78
2021/07/06 01:35:22;;;;;;;24.55;19.55;;;16.70;99.90;;;;;;6158595;23;20104;-78
2021/07/06 01:37:53;;;;;;;19.75;17.30;;;16.70;99.90;;;;;;6185216;23;20020;-78
2021/07/06 01:40:24;;;;;;;24.30;17.13;;;16.70;99.90;;;;;;6184399;23;20009;-78
2021/07/06 01:42:53;;;;;;;21.90;15.57;;;16.70;99.90;;;;;;6183496;23;20029;-78
2021/07/06 01:45:24;;;;;;;18.05;14.50;;;16.70;99.90;;;;;;6184971;23;20020;-78
2021/07/06 01:47:53;;;;;;;22.75;14.88;;;16.70;99.90;;;;;;6184752;23;20013;-79
2021/07/06 01:50:22;;;;;;;25.42;16.00;;;16.70;99.90;;;;;;6185405;23;20067;-79
2021/07/06 01:52:50;;;;;;;26.73;15.32;;;16.70;99.90;;;;;;6158433;23;20389;-78
2021/07/06 01:55:22;;;;;;;20.98;15.98;;;16.60;99.90;;;;;;6184315;23;20013;-78
2021/07/06 01:57:50;;;;;;;22.25;16.42;;;16.70;99.90;;;;;;6185670;23;20013;-79
2021/07/06 02:00:21;;;;;;;21.58;16.50;;;16.60;99.90;;;;;;6187253;23;20039;-78
2021/07/06 02:02:49;;;;;;;18.65;15.48;;;16.70;99.90;;;;;;6184174;23;20013;-78
2021/07/06 02:05:18;;;;;;;21.17;15.30;;;16.70;99.90;;;;;;6183385;23;20024;-78
2021/07/06 02:07:44;;;;;;;18.17;15.88;;;16.70;99.90;;;;;;6184238;23;20077;-78
2021/07/06 02:10:11;;;;;;;18.38;16.10;;;16.70;99.90;;;;;;6158021;23;20017;-78
2021/07/06 02:12:39;;;;;;;19.02;16.08;;;16.70;99.90;;;;;;6183068;23;20013;-78
2021/07/06 02:15:12;;;;;;;20.98;15.63;;;16.70;99.90;;;;;;6183157;23;20092;-78
2021/07/06 02:17:38;;;;;;;20.50;15.60;;;16.80;99.90;;;;;;6159510;23;20013;-78
2021/07/06 02:20:09;;;;;;;21.20;15.07;;;16.70;99.90;;;;;;6183020;23;20013;-77
2021/07/06 02:22:36;;;;;;;20.42;15.77;;;16.70;99.90;;;;;;6184652;23;20080;-77
2021/07/06 02:25:03;;;;;;;18.42;15.02;;;16.70;99.90;;;;;;6186630;23;20392;-77
2021/07/06 02:27:29;;;;;;;21.17;15.25;;;16.70;99.90;;;;;;6186191;23;20077;-77
2021/07/06 02:29:55;;;;;;;21.58;16.08;;;16.70;99.90;;;;;;6187463;23;20064;-77
2021/07/06 02:32:21;;;;;;;17.92;14.48;;;16.70;99.90;;;;;;6187035;23;20013;-77
2021/07/06 02:34:47;;;;;;;20.17;14.90;;;16.70;99.90;;;;;;6185763;23;20051;-78
2021/07/06 02:37:15;;;;;;;18.25;14.52;;;16.70;99.90;;;;;;6135663;23;20013;-78
2021/07/06 02:39:41;;;;;;;18.52;14.82;;;16.70;99.90;;;;;;6184955;23;20024;-78
2021/07/06 02:42:09;;;;;;;20.20;15.40;;;16.70;99.90;;;;;;6185965;23;20009;-78
2021/07/06 02:44:35;;;;;;;22.23;15.13;;;16.70;99.90;;;;;;6184526;23;20017;-78
2021/07/06 02:47:01;;;;;;;17.70;14.57;;;16.70;99.90;;;;;;6187746;23;20095;-78
2021/07/06 02:49:27;;;;;;;18.00;14.45;;;16.70;99.90;;;;;;6185118;23;20028;-78
2021/07/06 02:51:52;;;;;;;19.55;14.45;;;16.70;99.90;;;;;;6185086;23;20013;-78
2021/07/06 02:54:18;;;;;;;15.57;13.60;;;16.80;99.90;;;;;;6186379;23;20444;-78
2021/07/06 02:56:44;;;;;;;20.50;14.05;;;16.80;99.90;;;;;;6186027;23;20009;-78
2021/07/06 02:59:10;;;;;;;19.05;14.10;;;16.70;99.90;;;;;;6187425;23;20009;-78
2021/07/06 03:01:36;;;;;;;15.55;13.13;;;16.80;99.90;;;;;;6134985;23;20012;-78
2021/07/06 03:04:02;;;;;;;17.02;13.70;;;16.80;99.90;;;;;;6159899;23;20009;-77
2021/07/06 03:06:30;;;;;;;18.63;13.52;;;16.80;99.90;;;;;;6186736;23;20446;-78
2021/07/06 03:08:56;;;;;;;21.95;13.45;;;16.80;99.90;;;;;;6184750;23;20036;-78
2021/07/06 03:11:23;;;;;;;23.60;12.93;;;16.80;99.90;;;;;;6160006;23;20013;-78
2021/07/06 03:13:49;;;;;;;13.98;12.48;;;16.80;99.90;;;;;;6184988;23;20009;-78
2021/07/06 03:16:15;;;;;;;13.52;11.45;;;16.80;99.90;;;;;;6184597;23;20021;-78
2021/07/06 03:18:41;;;;;;;19.10;12.32;;;16.80;99.90;;;;;;6186366;23;20013;-78
2021/07/06 03:21:07;;;;;;;16.48;12.43;;;16.80;99.90;;;;;;6184659;23;20039;-77
2021/07/06 03:23:33;;;;;;;19.15;11.20;;;16.80;99.90;;;;;;6187249;23;20013;-78
2021/07/06 03:25:59;;;;;;;15.38;11.80;;;16.80;99.90;;;;;;6186040;23;20013;-78
2021/07/06 03:28:25;;;;;;;16.63;10.85;;;16.80;99.90;;;;;;6159800;23;20013;-78
2021/07/06 03:30:51;;;;;;;14.00;10.48;;;16.80;99.90;;;;;;6184540;23;20087;-78
2021/07/06 03:33:17;;;;;;;15.68;9.75;;;16.80;99.90;;;;;;6184982;23;20051;-77
2021/07/06 03:35:44;;;;;;;12.18;9.80;;;16.80;99.90;;;;;;6184986;23;20067;-78
2021/07/06 03:38:09;;;;;;;11.30;9.70;;;16.80;99.90;;;;;;6185837;23;20017;-77
2021/07/06 03:40:36;;;;;;;15.80;9.75;;;16.80;99.90;;;;;;6209924;23;20016;-77
2021/07/06 03:43:03;;;;;;;10.82;9.18;;;16.80;99.90;;;;;;6184600;23;20009;-77
2021/07/06 03:45:29;;;;;;;13.07;8.82;;;16.80;99.90;;;;;;6186499;23;20023;-77
2021/07/06 03:47:55;;;;;;;11.30;8.85;;;16.80;99.90;;;;;;6210415;23;20084;-77
2021/07/06 03:50:24;;;;;;;12.30;8.80;;;16.90;99.90;;;;;;6183843;23;20053;-77
2021/07/06 03:53:02;;;;;;;12.13;8.50;;;16.80;99.90;;;;;;6185816;23;20013;-77
2021/07/06 03:55:31;;;;;;;9.90;8.00;;;16.80;99.90;;;;;;6159194;23;20483;-78
2021/07/06 03:57:57;;;;;;;11.32;8.13;;;16.80;99.90;;;;;;6187773;23;20026;-78
2021/07/06 04:00:28;;;;;;;12.48;8.27;;;16.70;99.90;;;;;;6186310;23;20013;-79
2021/07/06 04:02:54;;;;;;;13.45;8.70;;;16.90;99.90;;;;;;6188162;23;20035;-79
2021/07/06 04:05:20;;;;;;;12.20;7.88;;;16.90;99.90;;;;;;6186525;23;20020;-79
2021/07/06 04:07:47;;;;;;;10.18;7.47;;;16.90;99.90;;;;;;6184508;23;20010;-79
2021/07/06 04:10:16;;;;;;;13.00;7.95;;;16.90;99.90;;;;;;6186099;23;20012;-79
2021/07/06 04:12:43;;;;;;;12.25;7.60;;;16.90;99.90;;;;;;6186226;23;20013;-79
2021/07/06 04:15:12;;;;;;;15.15;7.88;;;17.00;99.90;;;;;;6184996;23;20044;-79
2021/07/06 04:17:39;;;;;;;11.15;8.32;;;17.00;99.90;;;;;;6183683;23;20120;-79
2021/07/06 04:20:07;;;;;;;10.90;7.85;;;17.00;99.90;;;;;;6184528;23;20342;-79
2021/07/06 04:22:33;;;;;;;11.02;7.78;;;17.00;99.90;;;;;;6208709;23;20044;-79
2021/07/06 04:25:00;;;;;;;11.25;8.00;;;17.00;99.90;;;;;;6185801;23;20324;-79
2021/07/06 04:27:26;;;;;;;10.88;7.88;;;16.90;99.90;;;;;;6186454;23;20013;-79
2021/07/06 04:29:52;;;;;;;13.05;8.02;;;17.00;99.90;;;;;;6183810;23;20020;-79
2021/07/06 04:32:18;;;;;;;11.25;7.45;;;17.10;99.90;;;;;;6184133;23;20031;-79
2021/07/06 04:34:45;;;;;;;12.95;7.50;;;17.00;99.90;;;;;;6183764;23;20013;-79
2021/07/06 04:37:12;;;;;;;8.70;7.43;;;17.00;99.90;;;;;;6184267;23;20013;-79
2021/07/06 04:39:38;;;;;;;8.85;7.20;;;17.10;99.90;;;;;;6185369;23;20340;-79
2021/07/06 04:42:05;;;;;;;9.85;7.88;;;17.10;99.90;;;;;;6183250;23;20013;-79
2021/07/06 04:44:30;;;;;;;8.80;6.63;;;17.10;99.90;;;;;;6183910;23;20478;-79
2021/07/06 04:46:56;;;;;;;11.05;7.43;;;17.10;99.90;;;;;;6186318;23;20009;-79
2021/07/06 04:49:22;;;;;;;10.30;6.75;;;17.10;99.90;;;;;;6184813;23;20071;-78
2021/07/06 04:51:48;;;;;;;10.18;6.45;;;17.20;99.90;;;;;;6185916;23;20020;-78
2021/07/06 04:54:14;;;;;;;9.90;5.85;;;17.20;99.90;;;;;;6185288;23;20013;-77
2021/07/06 04:56:39;;;;;;;5.70;5.10;;;17.20;99.90;;;;;;6210125;23;20067;-78
2021/07/06 04:59:05;;;;;;;8.18;5.07;;;17.20;99.90;;;;;;6208323;23;20313;-78
2021/07/06 05:01:35;;;;;;;7.95;5.65;;;17.30;99.90;;;;;;6184822;23;20497;-77
2021/07/06 05:04:02;;;;;;;6.30;5.00;;;17.30;99.90;;;;;;6186414;23;20013;-78
2021/07/06 05:06:27;;;;;;;7.57;4.85;;;17.30;99.90;;;;;;6186392;23;20562;-79
2021/07/06 05:08:53;;;;;;;9.00;5.30;;;17.30;99.90;;;;;;6208455;23;20019;-79
2021/07/06 05:11:19;;;;;;;9.70;4.53;;;17.30;99.90;;;;;;6185849;23;20017;-79
2021/07/06 05:13:45;;;;;;;7.40;4.28;;;17.40;99.90;;;;;;6184180;23;20061;-79
2021/07/06 05:16:11;;;;;;;8.80;4.50;;;17.40;99.90;;;;;;6183391;23;20041;-79
2021/07/06 05:18:37;;;;;;;8.77;4.88;;;17.40;99.90;;;;;;6183769;23;20013;-79
2021/07/06 05:21:03;;;;;;;7.40;4.50;;;17.40;99.90;;;;;;6188301;23;20013;-79
2021/07/06 05:23:29;;;;;;;6.95;4.10;;;17.50;99.90;;;;;;6184653;23;20344;-79
2021/07/06 05:25:55;;;;;;;5.60;4.03;;;17.60;99.90;;;;;;6209810;23;20451;-79
2021/07/06 05:28:21;;;;;;;7.90;4.18;;;17.60;99.90;;;;;;6184140;23;20063;-79
2021/07/06 05:30:47;;;;;;;8.40;4.10;;;17.80;99.90;;;;;;6158394;23;20412;-79
2021/07/06 05:33:13;;;;;;;5.65;4.35;;;17.80;99.90;;;;;;6185924;23;20009;-79
2021/07/06 05:35:39;;;;;;;7.60;3.90;;;17.90;99.90;;;;;;6209029;23;20009;-79
2021/07/06 05:38:05;;;;;;;4.82;3.55;;;18.00;99.90;;;;;;6183422;23;20040;-79
2021/07/06 05:40:31;;;;;;;6.72;3.70;;;18.30;99.90;;;;;;6186713;23;20075;-79
2021/07/06 05:42:57;;;;;;;4.70;3.15;;;18.40;99.90;;;;;;6158510;23;20127;-79
2021/07/06 05:45:23;;;;;;;5.28;2.80;;;18.30;99.90;;;;;;6208528;23;20017;-78
2021/07/06 05:47:49;;;;;;;5.00;2.40;;;18.30;99.90;;;;;;6184041;23;20013;-79
2021/07/06 05:50:16;;;;;;;6.22;2.70;;;18.20;99.90;;;;;;6208204;23;20323;-79
2021/07/06 05:52:43;;;;;;;4.65;2.38;;;18.20;99.90;;;;;;6185221;23;20016;-78
2021/07/06 05:55:10;;;;;;;5.05;2.47;;;18.20;99.90;;;;;;6185489;23;20025;-78
2021/07/06 05:57:39;;;;;;;4.43;2.50;;;18.10;99.90;;;;;;6184072;23;20013;-78
2021/07/06 06:00:07;;;;;;;3.78;2.83;;;18.10;99.90;;;;;;6183718;23;20013;-78
2021/07/06 06:02:33;;;;;;;4.32;2.42;;;18.10;99.90;;;;;;6183132;23;20346;-78
2021/07/06 06:04:59;;;;;;;4.07;2.75;;;18.00;99.90;;;;;;6184114;23;20098;-78
2021/07/06 06:07:25;;;;;;;3.55;2.53;;;18.10;99.90;;;;;;6184370;23;20486;-79
2021/07/06 06:09:51;;;;;;;5.75;2.80;;;18.00;99.90;;;;;;6183350;23;20092;-81
2021/07/06 06:12:17;;;;;;;5.93;2.72;;;18.00;99.90;;;;;;6183344;23;20023;-78
2021/07/06 06:14:43;;;;;;;4.95;2.72;;;18.00;99.90;;;;;;6208701;23;20073;-80
2021/07/06 06:17:10;;;;;;;5.20;2.70;;;18.00;99.90;;;;;;6183416;23;20447;-79
2021/07/06 06:19:37;;;;;;;6.55;2.72;;;18.00;99.90;;;;;;6187754;23;20440;-78
2021/07/06 06:22:09;;;;;;;4.50;2.10;;;18.00;99.90;;;;;;6208278;23;20020;-77
2021/07/06 06:24:38;;;;;;;4.75;2.10;;;18.00;99.90;;;;;;6186715;23;20024;-88
2021/07/06 06:27:04;;;;;;;4.57;2.20;;;18.00;99.90;;;;;;6186071;23;20020;-85
2021/07/06 06:29:40;;;;;;;4.00;1.98;;;18.00;99.90;;;;;;6187020;23;20017;-86
2021/07/06 06:32:06;;;;;;;2.90;1.80;;;18.00;99.90;;;;;;6183500;23;20033;-79
2021/07/06 06:34:32;;;;;;;4.90;1.90;;;18.00;99.90;;;;;;6184322;23;20071;-80
2021/07/06 06:36:58;;;;;;;2.53;1.73;;;18.00;99.90;;;;;;6208019;23;20013;-78
2021/07/06 06:39:24;;;;;;;5.53;2.00;;;18.00;99.90;;;;;;6157289;23;20013;-79
2021/07/06 06:41:50;;;;;;;5.03;2.20;;;18.00;99.90;;;;;;6182443;23;20370;-77
2021/07/06 06:44:16;;;;;;;5.45;1.83;;;18.10;99.90;;;;;;6183787;23;20013;-79
2021/07/06 06:46:42;;;;;;;5.65;2.10;;;18.10;99.90;;;;;;6182299;23;20099;-80
2021/07/06 06:49:09;;;;;;;4.85;2.47;;;18.10;99.90;;;;;;6183841;23;20141;-80
2021/07/06 06:51:35;;;;;;;5.05;1.90;;;18.10;99.90;;;;;;6183039;23;20037;-80
2021/07/06 06:54:05;;;;;;;3.65;1.88;;;18.10;99.90;;;;;;6184051;23;20518;-79
2021/07/06 06:56:31;;;;;;;4.05;2.05;;;18.10;99.90;;;;;;6184927;23;20024;-79
2021/07/06 06:59:00;;;;;;;5.07;1.83;;;18.10;99.90;;;;;;6207974;23;20092;-80
2021/07/06 07:01:27;;;;;;;5.85;1.98;;;18.10;99.90;;;;;;6182683;23;20051;-80
2021/07/06 07:03:53;;;;;;;6.03;2.03;;;18.20;99.90;;;;;;6182202;23;20347;-79
2021/07/06 07:06:19;;;;;;;6.35;1.98;;;18.20;99.90;;;;;;6182907;23;20020;-80
2021/07/06 07:08:49;;;;;;;5.13;1.75;;;18.20;99.90;;;;;;6183229;23;20332;-83
2021/07/06 07:11:15;;;;;;;3.55;1.80;;;18.30;99.90;;;;;;6159045;23;20151;-79
2021/07/06 07:13:41;;;;;;;4.07;2.00;;;18.20;99.90;;;;;;6188182;23;20037;-79
2021/07/06 07:16:07;;;;;;;8.73;2.13;;;18.70;99.90;;;;;;6184286;23;20017;-80
2021/07/06 07:18:33;;;;;;;5.75;2.00;;;18.30;99.90;;;;;;6187474;23;20335;-80
2021/07/06 07:21:00;;;;;;;3.83;2.22;;;18.30;99.90;;;;;;6186434;23;20013;-80
2021/07/06 07:23:26;;;;;;;4.43;1.85;;;18.30;99.90;;;;;;6183929;23;20447;-84
2021/07/06 07:25:52;;;;;;;6.47;2.00;;;18.30;99.90;;;;;;6159496;23;20016;-82
2021/07/06 07:28:20;;;;;;;7.55;2.25;;;18.40;99.90;;;;;;6184216;23;20367;-84
2021/07/06 07:30:46;;;;;;;5.38;2.08;;;18.40;99.90;;;;;;6159510;23;20347;-84
2021/07/06 07:33:12;;;;;;;4.60;1.90;;;18.40;99.90;;;;;;6185549;23;20013;-82
2021/07/06 07:35:40;;;;;;;10.32;2.25;;;18.50;99.90;;;;;;6183592;23;20021;-82
2021/07/06 07:38:06;;;;;;;3.67;1.88;;;18.50;99.90;;;;;;6185247;23;20400;-83
2021/07/06 07:40:34;;;;;;;5.28;2.13;;;18.50;99.90;;;;;;6183761;23;20012;-79
2021/07/06 07:43:25;;;;;;;4.78;2.63;;;18.50;99.90;;;;;;6187555;23;20434;-83
2021/07/06 07:45:51;;;;;;;2.67;1.83;;;18.50;99.90;;;;;;6186203;23;20083;-77
2021/07/06 07:48:17;;;;;;;4.55;2.00;;;18.60;99.90;;;;;;6190239;23;20009;-78
2021/07/06 07:50:43;;;;;;;5.57;2.13;;;18.60;99.90;;;;;;6185088;23;20044;-77
2021/07/06 07:53:09;;;;;;;5.07;2.15;;;18.70;99.90;;;;;;6184042;23;20037;-76
2021/07/06 07:55:35;;;;;;;4.28;1.88;;;18.70;99.90;;;;;;6185180;23;20017;-79
2021/07/06 07:58:06;;;;;;;4.18;2.22;;;18.70;99.90;;;;;;6210146;23;20009;-84
2021/07/06 08:00:35;;;;;;;5.00;2.22;;;18.80;99.90;;;;;;6185229;23;20469;-83
2021/07/06 08:03:04;;;;;;;4.40;2.33;;;18.80;99.90;;;;;;6185415;23;20057;-87
2021/07/06 08:05:33;;;;;;;7.30;2.50;;;18.80;99.90;;;;;;6161596;23;20017;-84
2021/07/06 08:07:59;;;;;;;7.47;2.33;;;18.80;99.90;;;;;;6184836;23;20076;-83
2021/07/06 08:10:28;;;;;;;8.10;2.30;;;18.90;99.90;;;;;;6184144;23;20029;-83
2021/07/06 08:12:56;;;;;;;5.00;2.10;;;18.90;99.90;;;;;;6209339;23;20359;-84
2021/07/06 08:15:23;;;;;;;6.45;2.15;;;19.00;99.90;;;;;;6186714;23;20016;-84
2021/07/06 08:17:50;;;;;;;10.73;2.40;;;19.00;99.90;;;;;;6186161;23;20009;-87
2021/07/06 08:20:16;;;;;;;7.43;2.30;;;19.00;99.90;;;;;;6184768;23;20016;-87
2021/07/06 08:22:45;;;;;;;5.47;2.55;;;19.10;99.90;;;;;;6188551;23;20017;-87
2021/07/06 08:25:22;;;;;;;4.93;2.42;;;19.10;99.90;;;;;;6186377;23;20020;-82
2021/07/06 08:28:27;;;;;;;8.50;2.30;;;19.10;99.90;;;;;;6159090;23;20667;-85
2021/07/06 08:30:58;;;;;;;6.10;2.20;;;19.20;99.90;;;;;;6183903;23;20063;-87
2021/07/06 08:33:24;;;;;;;4.07;2.38;;;19.20;99.90;;;;;;6185736;23;20363;-83
2021/07/06 08:35:50;;;;;;;7.40;2.15;;;19.20;99.90;;;;;;6185152;23;20013;-83
2021/07/06 08:38:16;;;;;;;4.75;2.15;;;19.30;99.90;;;;;;6184976;23;20095;-84
2021/07/06 08:40:44;;;;;;;4.93;2.45;;;19.30;99.90;;;;;;6183784;23;20913;-80
2021/07/06 08:43:10;;;;;;;5.88;2.28;;;19.30;99.90;;;;;;6185181;23;20012;-79
2021/07/06 08:45:36;;;;;;;4.70;2.50;;;19.30;99.90;;;;;;6186275;23;20480;-83
2021/07/06 08:48:03;;;;;;;11.02;2.65;;;19.40;99.90;;;;;;6209236;23;20009;-84
2021/07/06 08:50:29;;;;;;;7.95;3.05;;;19.40;99.90;;;;;;6183836;23;20009;-83
2021/07/06 08:52:55;;;;;;;7.40;2.15;;;19.30;99.90;;;;;;6186056;23;20458;-83
2021/07/06 08:55:21;;;;;;;4.18;2.05;;;19.40;99.90;;;;;;6183981;23;20431;-84
2021/07/06 08:57:49;;;;;;;6.57;2.28;;;19.40;99.90;;;;;;6209225;23;20013;-84
2021/07/06 09:00:17;;;;;;;6.32;2.03;;;19.40;99.90;;;;;;6184320;23;20009;-79
2021/07/06 09:03:13;;;;;;;6.70;2.38;;;19.40;99.90;;;;;;6158890;23;20061;-79
2021/07/06 09:05:39;;;;;;;10.32;2.67;;;19.40;99.90;;;;;;6178652;23;20021;-79
2021/07/06 09:08:07;;;;;;;6.93;2.50;;;19.40;99.90;;;;;;6159030;23;20013;-79
2021/07/06 09:10:39;;;;;;;7.55;2.42;;;19.40;99.90;;;;;;6183869;23;20009;-83
2021/07/06 09:13:27;;;;;;;4.90;2.15;;;19.40;99.90;;;;;;6183910;23;20013;-79
2021/07/06 09:15:55;;;;;;;7.35;2.20;;;19.40;99.90;;;;;;6184997;23;20009;-84
2021/07/06 09:18:23;;;;;;;10.60;2.22;;;19.50;99.90;;;;;;6185766;23;20067;-79
2021/07/06 09:21:12;;;;;;;9.88;2.75;;;19.50;99.90;;;;;;6183224;23;20013;-83
2021/07/06 09:23:43;;;;;;;7.63;2.50;;;19.60;99.90;;;;;;6186072;23;20052;-84
2021/07/06 09:26:29;;;;;;;7.30;2.15;;;19.70;99.90;;;;;;6183733;23;20017;-84
2021/07/06 09:28:58;;;;;;;;;;;19.80;99.90;;;;;;6187811;23;20084;-83
2021/07/06 09:31:27;;;;;;;7.53;2.20;;;19.80;99.90;;;;;;6183649;23;19919;-79
2021/07/06 09:34:13;;;;;;;4.70;1.90;;;20.00;99.90;;;;;;6185319;23;20005;-77
2021/07/06 09:36:42;;;;;;;5.90;2.00;;;19.90;99.90;;;;;;6186157;23;20009;-78
2021/07/06 09:39:28;;;;;;;8.57;2.33;;;20.00;99.90;;;;;;6183690;23;20005;-78
2021/07/06 09:42:02;;;;;;;5.57;1.92;;;20.00;99.90;;;;;;6184320;23;20009;-78
2021/07/06 09:44:34;;;;;;;5.53;1.97;;;20.10;99.90;;;;;;6186521;23;20013;-83
2021/07/06 09:47:12;;;;;;;5.03;1.70;;;20.30;99.90;;;;;;6185380;23;20004;-80
2021/07/06 09:49:43;;;;;;;10.75;2.10;;;20.40;99.90;;;;;;6182016;23;20013;-84
2021/07/06 09:52:14;;;;;;;5.57;1.73;;;20.50;99.90;;;;;;6181901;23;20041;-83
2021/07/06 09:54:47;;;;;;;3.97;1.77;;;20.60;99.90;;;;;;6183113;23;20059;-79
2021/07/06 09:57:25;;;;;;;3.15;1.90;;;20.60;99.90;;;;;;6181396;23;20371;-82
2021/07/06 10:00:09;;;;;;;;;;;;;;;;;;;;;
2021/07/06 10:03:02;;;;;;;7.53;1.70;;;20.70;99.90;;;;;;6182653;23;20096;-79
2021/07/06 10:05:32;;;;;;;4.30;1.30;;;20.80;99.90;;;;;;6185132;23;20423;-84
2021/07/06 10:08:01;;;;;;;10.45;2.00;;;20.70;99.90;;;;;;6156370;23;20028;-79
2021/07/06 10:10:27;;;;;;;6.30;1.75;;;20.70;99.90;;;;;;6183349;23;20028;-80
2021/07/06 10:13:00;;;;;;;4.18;1.73;;;20.70;99.90;;;;;;6183664;23;20017;-87
2021/07/06 10:15:26;;;;;;;5.43;1.60;;;20.80;99.90;;;;;;6185364;23;20096;-87
2021/07/06 10:18:04;;;;;;;3.42;1.33;;;20.80;99.90;;;;;;6159747;23;20013;-85
2021/07/06 10:20:57;;;;;;;8.50;1.88;;;20.80;99.90;;;;;;6184842;23;20009;-85
2021/07/06 10:23:59;;;;;;;5.10;1.70;;;20.90;99.90;;;;;;6162782;23;20017;-87
2021/07/06 10:26:35;;;;;;;4.82;1.48;;;21.00;99.90;;;;;;6186576;23;20041;-87
2021/07/06 10:29:02;;;;;;;6.63;1.50;;;21.00;99.90;;;;;;6184941;23;20016;-86
2021/07/06 10:31:39;;;;;;;5.35;1.50;;;20.90;99.90;;;;;;6185210;23;20446;-88
2021/07/06 10:34:20;;;;;;;4.57;1.70;;;20.90;99.90;;;;;;6205041;23;20009;-81
2021/07/06 10:36:51;;;;;;;4.43;1.70;;;20.70;99.90;;;;;;6186298;23;20021;-82
2021/07/06 10:39:37;;;;;;;4.97;1.50;;;20.50;99.90;;;;;;6184268;23;20041;-81
2021/07/06 10:42:10;;;;;;;3.60;1.33;;;20.40;99.90;;;;;;6183106;23;20087;-80
2021/07/06 10:45:07;;;;;;;;;;;;;;;;;;;;;
2021/07/06 10:48:16;;;;;;;;;;;;;;;;;;;;;
2021/07/06 10:51:03;;;;;;;4.00;1.35;;;19.70;99.90;;;;;;6206001;23;20146;-86
2021/07/06 10:57:02;;;;;;;6.60;1.35;;;19.40;99.90;;;;;;6099273;23;20026;-86
2021/07/06 10:59:39;;;;;;;5.35;1.50;;;19.40;99.90;;;;;;6185318;23;20458;-88
2021/07/06 11:06:09;;;;;;;7.70;1.77;;;19.30;99.90;;;;;;6062973;23;20406;-87
2021/07/06 11:08:59;;;;;;;6.65;1.70;;;19.30;99.90;;;;;;6008452;23;20074;-87
2021/07/06 11:11:42;;;;;;;5.15;1.70;;;19.30;99.90;;;;;;6187111;23;20017;-86
2021/07/06 11:14:35;;;;;;;4.28;1.75;;;19.50;99.90;;;;;;6185305;23;20337;-87
2021/07/06 11:17:49;;;;;;;;;;;;;;;;;;;;;
2021/07/06 11:23:45;;;;;;;6.93;1.75;;;20.20;99.90;;;;;;6142987;23;20092;-87
2021/07/06 11:26:22;;;;;;;4.88;1.63;;;20.10;99.90;;;;;;6209609;23;20009;-87
2021/07/06 11:29:32;;;;;;;6.20;1.60;;;20.60;99.90;;;;;;6148716;23;20028;-85
2021/07/06 11:32:19;;;;;;;10.25;1.65;;;20.70;99.90;;;;;;6161161;23;20016;-83
2021/07/06 11:35:06;;;;;;;6.25;1.52;;;20.90;99.90;;;;;;6186109;23;20025;-84
2021/07/06 11:37:48;;;;;;;5.82;1.05;;;21.10;99.90;;;;;;6160764;23;20075;-84
2021/07/06 11:40:41;;;;;;;6.07;1.58;;;21.20;99.90;;;;;;6156817;23;20064;-82
2021/07/06 11:43:10;;;;;;;14.13;1.38;;;21.40;99.90;;;;;;6185972;23;20067;-83
2021/07/06 11:45:40;;;;;;;5.25;1.50;;;21.20;99.90;;;;;;6184552;23;20013;-85
2021/07/06 11:48:13;;;;;;;6.15;1.50;;;21.20;99.90;;;;;;6158572;23;20616;-77
2021/07/06 11:50:41;;;;;;;5.63;1.30;;;21.20;99.90;;;;;;6183269;23;20025;-80
2021/07/06 11:53:10;;;;;;;5.75;1.00;;;21.20;99.90;;;;;;6185717;23;20013;-88
2021/07/06 11:55:38;;;;;;;5.47;1.70;;;21.30;99.90;;;;;;6157070;23;20013;-80
2021/07/06 11:58:08;;;;;;;9.57;1.35;;;21.40;99.90;;;;;;6185460;23;20332;-88
2021/07/06 12:00:36;;;;;;;5.22;1.40;;;21.40;99.90;;;;;;6183622;23;20009;-80
2021/07/06 12:03:26;;;;;;;4.57;1.38;;;21.40;99.90;;;;;;6188412;23;20012;-87
2021/07/06 12:06:14;;;;;;;11.07;1.73;;;21.30;99.90;;;;;;6185487;23;20021;-79
2021/07/06 12:08:49;;;;;;;6.15;1.52;;;21.20;99.90;;;;;;6187093;23;20021;-88
2021/07/06 12:11:20;;;;;;;6.30;1.23;;;21.00;99.90;;;;;;6184162;23;20013;-85
2021/07/06 12:13:49;;;;;;;3.03;1.17;;;21.00;99.90;;;;;;6185954;23;20013;-85
2021/07/06 12:16:21;;;;;;;7.82;1.50;;;21.00;99.90;;;;;;6185879;23;20017;-87
2021/07/06 12:18:59;;;;;;;4.43;1.20;;;21.00;99.90;;;;;;6185848;23;20009;-87
2021/07/06 12:21:52;;;;;;;9.23;1.30;;;21.10;99.90;;;;;;6187105;23;20009;-87
2021/07/06 12:24:20;;;;;;;6.72;1.23;;;21.30;99.90;;;;;;6183947;23;20017;-86
2021/07/06 12:26:48;;;;;;;5.88;1.05;;;21.40;99.90;;;;;;6210904;23;20013;-87
2021/07/06 12:29:34;;;;;;;7.70;1.67;;;21.50;99.90;;;;;;6159931;23;20071;-87
2021/07/06 12:32:01;;;;;;;9.02;1.40;;;21.60;99.90;;;;;;6185804;23;20443;-80
2021/07/06 12:34:37;;;;;;;10.40;2.53;;;21.60;99.90;;;;;;6183028;23;20331;-80
2021/07/06 12:37:03;;;;;;;8.60;1.70;;;21.70;99.90;;;;;;6159003;23;20095;-80
2021/07/06 12:39:56;;;;;;;6.30;1.55;;;21.70;99.90;;;;;;6184767;23;20121;-79
2021/07/06 12:42:51;;;;;;;;;;;;;;;;;;;;;
2021/07/06 12:45:21;;;;;;;12.70;1.88;;;21.50;99.90;;;;;;6184938;23;20020;-80
2021/07/06 12:47:46;;;;;;;7.80;1.50;;;21.60;99.90;;;;;;6183847;23;20459;-79
2021/07/06 12:50:21;;;;;;;9.40;1.60;;;21.50;99.90;;;;;;6183972;23;20020;-80
2021/07/06 12:52:52;;;;;;;6.97;1.67;;;21.50;99.90;;;;;;6183829;23;20017;-81
2021/07/06 12:55:26;;;;;;;7.35;1.38;;;21.40;99.90;;;;;;6182955;23;20443;-81
2021/07/06 12:57:53;;;;;;;9.00;1.25;;;21.40;99.90;;;;;;6185743;23;20013;-87
2021/07/06 13:00:27;;;;;;;11.63;1.58;;;21.30;99.90;;;;;;6185061;23;20016;-80
2021/07/06 13:03:04;;;;;;;7.18;1.30;;;21.30;99.90;;;;;;6185478;23;20087;-80
2021/07/06 13:05:40;;;;;;;8.85;1.63;;;21.30;99.90;;;;;;6182771;23;20021;-80
2021/07/06 13:08:19;;;;;;;8.25;1.55;;;21.20;99.90;;;;;;6158536;23;20513;-89
2021/07/06 13:10:53;;;;;;;9.60;1.92;;;21.20;99.90;;;;;;6159398;23;20048;-86
2021/07/06 13:13:25;;;;;;;9.90;1.50;;;21.10;99.90;;;;;;6159442;23;20100;-86